Time;durP1;ratioP1;P1;durP2;ratioP2;P2;SDS_P1;SDS_P2;PMS_P1;PMS_P2;Temp;Humidity;BMP_temperature;BMP_pressure;BME280_temperature;BME280_humidity;BME280_pressure;Samples;Min_cycle;Max_cycle;Signal;HPM_P1;HPM_P2
2022/05/05 00:01:18;;;;;;;9.60;5.20;;;;;;;10.14;60.36;98609.48;106974;1277;23268;-89
2022/05/05 00:03:45;;;;;;;8.00;5.20;;;;;;;10.11;60.42;98607.79;106507;1277;137939;-89
2022/05/05 00:06:11;;;;;;;8.20;5.50;;;;;;;10.07;60.66;98608.98;106465;1277;23385;-89
2022/05/05 00:08:40;;;;;;;;;;;;;;;10.03;60.71;98606.80;106462;1277;138383;-89
2022/05/05 00:16:28;;;;;;;7.80;5.50;;;;;;;9.86;61.47;98614.16;106610;1278;137983;-90
2022/05/05 00:18:54;;;;;;;9.10;6.90;;;;;;;9.82;61.55;98608.77;106248;1278;25274;-90
2022/05/05 00:21:22;;;;;;;9.40;5.70;;;;;;;9.77;61.49;98609.98;106313;1277;137283;-89
2022/05/05 00:23:49;;;;;;;8.60;5.90;;;;;;;9.73;61.71;98607.38;106948;1277;23281;-88
2022/05/05 00:26:15;;;;;;;13.20;6.20;;;;;;;9.66;61.94;98609.51;106882;1277;137545;-89
2022/05/05 00:28:41;;;;;;;9.30;6.00;;;;;;;9.60;62.21;98614.28;106871;1277;23371;-89
2022/05/05 00:31:07;;;;;;;10.30;6.00;;;;;;;9.56;62.39;98619.58;106482;1278;24263;-89
2022/05/05 00:33:34;;;;;;;8.30;6.00;;;;;;;9.54;62.33;98624.77;106517;1277;137990;-90
2022/05/05 00:36:00;;;;;;;10.50;6.60;;;;;;;9.55;62.57;98619.94;106380;1277;23503;-89
2022/05/05 00:38:35;;;;;;;9.30;5.80;;;;;;;9.56;62.82;98617.30;106434;1277;137596;-88
2022/05/05 00:41:02;;;;;;;11.00;6.30;;;;;;;9.56;63.20;98616.37;106595;1277;24270;-90
2022/05/05 00:43:30;;;;;;;8.00;5.80;;;;;;;9.55;63.18;98615.92;106407;1277;22573;-88
2022/05/05 00:45:56;;;;;;;8.40;6.00;;;;;;;9.54;63.26;98615.34;106911;1277;137728;-89
2022/05/05 00:48:28;;;;;;;8.70;5.90;;;;;;;9.53;63.22;98617.72;106740;1277;25270;-89
2022/05/05 00:50:56;;;;;;;8.60;5.90;;;;;;;9.51;63.09;98616.69;106790;1277;137359;-89
2022/05/05 00:53:26;;;;;;;9.50;6.20;;;;;;;9.49;62.84;98616.97;106671;1277;22545;-89
2022/05/05 00:56:02;;;;;;;11.10;6.80;;;;;;;9.47;63.26;98617.94;106495;1277;22544;-88
2022/05/05 00:58:29;;;;;;;12.40;7.40;;;;;;;9.40;63.59;98617.45;106502;1277;137382;-88
2022/05/05 01:00:55;;;;;;;12.90;7.70;;;;;;;9.31;63.81;98622.70;106484;1277;24331;-88
2022/05/05 01:03:23;;;;;;;12.60;7.00;;;;;;;9.23;63.91;98618.42;106587;1277;137991;-89
2022/05/05 01:05:50;;;;;;;10.90;6.70;;;;;;;9.18;64.00;98619.38;106463;1277;22612;-89
2022/05/05 01:08:18;;;;;;;10.90;5.90;;;;;;;9.14;64.15;98611.84;106489;1276;137954;-89
2022/05/05 01:10:51;;;;;;;12.20;6.80;;;;;;;9.11;64.18;98611.45;107165;1276;22707;-89
2022/05/05 01:13:19;;;;;;;8.40;6.40;;;;;;;9.09;64.42;98611.12;106326;1277;25583;-89
2022/05/05 01:15:49;;;;;;;11.70;6.40;;;;;;;9.07;64.42;98612.44;106200;1277;138098;-89
2022/05/05 01:18:15;;;;;;;10.60;7.30;;;;;;;9.08;64.53;98615.94;106817;1277;24336;-89
2022/05/05 01:20:50;;;;;;;10.40;6.90;;;;;;;9.07;64.77;98609.55;106119;1277;137876;-89
2022/05/05 01:23:17;;;;;;;12.20;7.00;;;;;;;9.05;65.21;98609.00;106417;1277;22615;-90
2022/05/05 01:28:31;;;;;;;13.10;7.00;;;;;;;9.02;64.85;98615.73;106648;1276;137220;-89
2022/05/05 01:30:58;;;;;;;12.00;7.10;;;;;;;9.01;65.12;98619.98;106752;1277;22558;-88
2022/05/05 01:33:28;;;;;;;10.40;6.10;;;;;;;8.96;65.38;98619.66;106470;1277;137632;-89
2022/05/05 01:35:56;;;;;;;8.70;6.70;;;;;;;8.82;65.33;98621.26;106581;1276;22607;-90
2022/05/05 01:38:30;;;;;;;9.80;6.50;;;;;;;8.72;65.88;98623.65;106471;1277;137509;-89
2022/05/05 01:41:00;;;;;;;10.90;7.40;;;;;;;8.66;66.19;98628.91;106575;1277;22576;-89
2022/05/05 01:43:29;;;;;;;11.70;6.60;;;;;;;8.60;66.42;98630.41;106397;1277;23325;-89
2022/05/05 01:45:58;;;;;;;10.60;7.20;;;;;;;8.49;66.58;98630.54;106243;1278;137868;-90
2022/05/05 01:48:42;;;;;;;13.10;9.00;;;;;;;8.40;67.02;98621.67;106217;1277;22985;-89
2022/05/05 01:51:08;;;;;;;;;;;;;;;8.38;67.30;98618.23;106082;1277;137641;-89
2022/05/05 01:53:37;;;;;;;10.70;7.20;;;;;;;8.35;67.52;98617.45;106319;1277;24280;-89
2022/05/05 01:56:12;;;;;;;9.20;6.70;;;;;;;8.35;67.81;98614.68;106668;1276;23949;-90
2022/05/05 01:58:44;;;;;;;9.70;7.10;;;;;;;8.34;67.60;98616.36;106578;1277;137345;-88
2022/05/05 02:01:12;;;;;;;13.80;7.90;;;;;;;8.32;67.92;98615.21;106481;1277;22552;-90
2022/05/05 02:03:40;;;;;;;11.30;7.40;;;;;;;8.30;67.83;98612.15;106588;1277;137600;-90
2022/05/05 02:06:09;;;;;;;;;;;;;;;8.21;67.93;98602.77;106277;1277;22547;-90
2022/05/05 02:08:37;;;;;;;13.00;7.90;;;;;;;8.22;68.39;98612.04;106579;1277;124951;-90
2022/05/05 02:11:04;;;;;;;13.90;6.90;;;;;;;8.22;68.19;98615.84;106632;1278;22574;-87
2022/05/05 02:13:30;;;;;;;11.10;7.00;;;;;;;8.22;68.20;98619.30;106420;1277;22541;-90
2022/05/05 02:16:03;;;;;;;10.40;7.10;;;;;;;8.16;68.28;98622.11;106652;1277;137709;-89
2022/05/05 02:18:44;;;;;;;11.30;7.80;;;;;;;8.05;68.44;98625.36;106952;1277;22887;-90
2022/05/05 02:21:11;;;;;;;10.00;7.70;;;;;;;7.95;68.74;98624.70;106528;1277;137896;-89
2022/05/05 02:23:37;;;;;;;10.50;7.80;;;;;;;7.93;69.08;98625.73;106540;1277;23450;-89
2022/05/05 02:26:04;;;;;;;8.90;7.40;;;;;;;7.92;69.26;98627.07;106655;1277;22572;-90
2022/05/05 02:28:34;;;;;;;13.50;8.20;;;;;;;7.91;69.32;98622.20;106712;1277;137682;-89
2022/05/05 02:31:01;;;;;;;10.90;7.30;;;;;;;7.92;69.35;98623.54;106971;1276;24322;-88
2022/05/05 02:33:27;;;;;;;14.50;7.10;;;;;;;7.94;69.43;98619.17;106747;1277;138327;-90
2022/05/05 02:41:13;;;;;;;11.50;7.20;;;;;;;8.04;69.25;98626.45;106507;1277;31911;-91
2022/05/05 02:43:51;;;;;;;10.70;7.80;;;;;;;8.05;69.36;98629.33;106705;1277;24228;-91
2022/05/05 02:46:17;;;;;;;11.50;8.80;;;;;;;8.05;69.37;98626.16;106819;1277;137463;-92
2022/05/05 02:48:44;;;;;;;11.50;7.70;;;;;;;8.05;69.05;98628.33;106760;1277;23165;-91
2022/05/05 02:51:10;;;;;;;10.60;7.90;;;;;;;8.06;68.81;98628.16;106372;1277;137737;-90
2022/05/05 02:56:31;;;;;;;13.40;8.60;;;;;;;8.04;69.21;98623.04;106568;1277;138049;-90
2022/05/05 02:58:58;;;;;;;11.00;7.30;;;;;;;8.04;69.31;98623.87;106469;1277;22564;-90
2022/05/05 03:01:39;;;;;;;12.40;7.60;;;;;;;8.05;69.15;98621.44;106532;1277;31016;-91
2022/05/05 03:04:07;;;;;;;11.70;7.80;;;;;;;8.09;68.99;98631.80;106332;1277;137478;-91
2022/05/05 03:06:33;;;;;;;13.40;7.50;;;;;;;8.10;69.34;98633.86;106779;1276;22674;-91
2022/05/05 03:09:03;;;;;;;15.90;8.90;;;;;;;8.10;69.59;98643.09;106387;1277;138472;-90
2022/05/05 03:11:29;;;;;;;14.70;8.20;;;;;;;8.10;69.56;98641.63;106890;1277;22627;-90
2022/05/05 03:13:56;;;;;;;18.50;8.80;;;;;;;8.09;69.35;98643.10;106564;1277;25454;-90
2022/05/05 03:16:27;;;;;;;13.20;7.60;;;;;;;8.07;69.40;98643.27;106435;1277;137540;-91
2022/05/05 03:18:56;;;;;;;14.70;8.80;;;;;;;8.05;69.54;98644.52;106715;1277;22634;-91
2022/05/05 03:21:23;;;;;;;12.90;8.20;;;;;;;8.05;69.63;98648.90;106872;1275;138063;-91
2022/05/05 03:24:05;;;;;;;18.20;8.00;;;;;;;8.05;69.70;98642.30;106374;1277;22575;-91
2022/05/05 03:26:31;;;;;;;13.70;8.30;;;;;;;8.05;69.66;98649.77;106569;1277;137785;-91
2022/05/05 03:28:58;;;;;;;16.70;8.60;;;;;;;8.03;69.74;98647.49;106477;1276;22912;-90
2022/05/05 03:31:25;;;;;;;9.70;7.80;;;;;;;8.05;69.71;98650.27;106567;1277;23414;-89
2022/05/05 03:33:53;;;;;;;12.40;8.20;;;;;;;8.03;69.74;98652.21;106722;1277;137766;-90
2022/05/05 03:36:19;;;;;;;11.40;7.70;;;;;;;8.00;69.81;98656.16;106698;1277;23961;-90
2022/05/05 03:38:48;;;;;;;12.00;8.10;;;;;;;7.94;70.03;98656.30;107029;1277;137611;-90
2022/05/05 03:41:20;;;;;;;12.50;8.00;;;;;;;7.92;70.23;98659.03;106682;1277;24358;-90
2022/05/05 03:43:46;;;;;;;12.10;8.90;;;;;;;7.95;70.41;98665.17;106413;1277;25493;-90
2022/05/05 03:46:13;;;;;;;11.40;7.90;;;;;;;8.00;70.43;98664.25;106329;1277;137793;-88
2022/05/05 03:48:40;;;;;;;12.20;8.00;;;;;;;8.02;70.59;98667.45;106911;1277;22623;-91
2022/05/05 03:51:09;;;;;;;16.40;7.90;;;;;;;8.02;70.62;98667.62;106332;1277;137449;-91
2022/05/05 03:53:36;;;;;;;15.20;9.30;;;;;;;8.05;70.89;98671.55;106554;1277;22594;-90
2022/05/05 03:56:04;;;;;;;13.00;7.80;;;;;;;8.08;70.96;98677.20;106657;1277;25286;-91
2022/05/05 03:58:31;;;;;;;16.50;8.70;;;;;;;8.14;71.04;98679.93;107110;1277;137968;-91
2022/05/05 04:00:57;;;;;;;11.90;8.00;;;;;;;8.20;71.28;98679.95;107076;1277;25455;-91
2022/05/05 04:03:32;;;;;;;14.00;8.10;;;;;;;8.29;71.22;98673.44;106381;1277;137509;-91
2022/05/05 04:06:06;;;;;;;14.10;8.50;;;;;;;8.39;71.09;98671.58;106455;1277;24312;-90
2022/05/05 04:08:37;;;;;;;11.10;8.00;;;;;;;8.50;71.20;98669.66;106351;1278;137941;-90
2022/05/05 04:11:06;;;;;;;17.20;9.20;;;;;;;8.60;71.28;98667.98;106877;1277;22671;-90
2022/05/05 04:13:39;;;;;;;20.30;10.10;;;;;;;8.69;71.11;98667.81;106347;1277;23316;-90
2022/05/05 04:16:06;;;;;;;13.70;8.30;;;;;;;8.77;71.76;98672.34;106195;1277;138348;-90
2022/05/05 04:18:33;;;;;;;13.30;8.80;;;;;;;8.84;71.91;98673.89;106495;1277;22712;-91
2022/05/05 04:20:59;;;;;;;11.00;8.40;;;;;;;8.87;72.08;98671.73;106531;1277;137703;-88
2022/05/05 04:23:26;;;;;;;17.30;9.00;;;;;;;8.88;72.29;98673.58;106958;1277;25257;-90
2022/05/05 04:25:59;;;;;;;18.90;8.60;;;;;;;8.91;72.47;98672.50;106723;1277;22547;-91
2022/05/05 04:28:26;;;;;;;14.00;8.50;;;;;;;8.98;72.48;98671.00;106585;1277;138800;-90
2022/05/05 04:30:53;;;;;;;12.10;8.20;;;;;;;9.05;72.57;98675.56;106660;1277;22728;-89
2022/05/05 04:33:20;;;;;;;15.80;7.90;;;;;;;9.12;72.55;98676.60;106420;1277;137850;-90
2022/05/05 04:35:49;;;;;;;13.10;9.70;;;;;;;9.16;72.51;98684.96;106585;1277;22544;-90
2022/05/05 04:38:15;;;;;;;14.40;8.70;;;;;;;9.23;72.57;98688.41;106642;1277;23297;-90
2022/05/05 04:40:42;;;;;;;12.40;9.00;;;;;;;9.31;72.53;98687.08;106396;1277;137264;-89
2022/05/05 04:43:08;;;;;;;15.10;9.50;;;;;;;9.42;72.45;98686.97;106751;1277;22639;-90
2022/05/05 04:45:43;;;;;;;16.30;8.50;;;;;;;9.52;72.23;98686.91;106441;1277;138389;-91
2022/05/05 04:48:09;;;;;;;11.00;8.00;;;;;;;9.59;72.15;98686.86;106551;1277;24528;-91
2022/05/05 04:50:36;;;;;;;18.70;8.90;;;;;;;9.70;71.82;98693.98;106484;1277;137968;-89
2022/05/05 04:53:05;;;;;;;14.40;8.60;;;;;;;9.74;71.50;98692.16;106759;1276;25072;-90
2022/05/05 04:55:31;;;;;;;17.60;9.50;;;;;;;9.73;71.50;98692.02;106638;1277;22844;-91
2022/05/05 04:58:00;;;;;;;14.80;8.60;;;;;;;9.74;71.61;98692.13;106375;1277;137494;-91
2022/05/05 05:00:27;;;;;;;18.80;9.30;;;;;;;9.73;71.76;98692.32;106527;1277;23151;-90
2022/05/05 05:02:54;;;;;;;16.70;9.20;;;;;;;9.74;71.78;98688.98;106465;1277;137747;-90
2022/05/05 05:05:24;;;;;;;17.10;9.20;;;;;;;9.82;71.94;98687.48;106643;1276;22855;-90
2022/05/05 05:07:50;;;;;;;10.60;8.20;;;;;;;9.94;71.62;98687.12;106546;1277;24212;-89
2022/05/05 05:10:20;;;;;;;14.30;8.60;;;;;;;10.06;71.11;98686.14;106649;1276;138078;-88
2022/05/05 05:12:47;;;;;;;13.00;8.30;;;;;;;10.19;70.42;98685.10;106485;1277;24242;-89
2022/05/05 05:15:15;;;;;;;12.60;8.30;;;;;;;10.30;69.91;98686.23;106444;1277;137862;-89
2022/05/05 05:17:49;;;;;;;15.60;8.20;;;;;;;10.42;69.35;98689.57;106490;1277;22564;-89
2022/05/05 05:20:15;;;;;;;11.90;8.10;;;;;;;10.54;68.88;98686.30;106834;1277;25396;-89
2022/05/05 05:22:42;;;;;;;12.20;8.50;;;;;;;10.68;68.72;98693.30;106464;1277;138001;-89
2022/05/05 05:25:08;;;;;;;12.00;8.10;;;;;;;10.80;67.77;98696.48;106626;1277;23353;-88
2022/05/05 05:27:34;;;;;;;12.90;8.10;;;;;;;10.92;67.43;98695.80;106571;1276;137871;-90
2022/05/05 05:30:01;;;;;;;12.90;7.90;;;;;;;11.02;67.17;98700.36;106483;1277;22385;-88
2022/05/05 05:32:27;;;;;;;11.90;8.50;;;;;;;11.11;66.71;98699.78;106435;1277;137753;-89
2022/05/05 05:34:54;;;;;;;11.00;7.80;;;;;;;11.21;66.66;98702.59;106951;1277;25350;-88
2022/05/05 05:37:20;;;;;;;13.40;8.10;;;;;;;11.29;65.96;98699.15;106552;1277;24236;-90
2022/05/05 05:39:50;;;;;;;11.80;8.00;;;;;;;11.34;65.95;98699.40;106333;1277;138188;-90
2022/05/05 05:42:22;;;;;;;12.60;8.30;;;;;;;11.40;65.72;98699.36;106438;1277;22587;-90
2022/05/05 05:44:51;;;;;;;10.20;7.40;;;;;;;11.51;65.62;98698.19;106607;1277;138422;-89
2022/05/05 05:47:19;;;;;;;12.10;8.40;;;;;;;11.60;65.20;98699.21;106481;1277;22725;-89
2022/05/05 05:49:48;;;;;;;11.10;7.90;;;;;;;11.66;65.27;98697.30;106278;1277;25381;-90
2022/05/05 05:52:17;;;;;;;11.30;8.10;;;;;;;11.72;65.50;98698.38;106479;1277;137855;-89
2022/05/05 05:54:44;;;;;;;11.60;8.10;;;;;;;11.79;64.95;98698.52;106639;1277;24237;-89
2022/05/05 05:57:10;;;;;;;10.50;7.80;;;;;;;11.86;65.12;98695.89;107030;1276;137648;-89
2022/05/05 05:59:37;;;;;;;13.50;7.90;;;;;;;11.96;65.47;98699.63;106686;1277;24520;-90
2022/05/05 06:04:40;;;;;;;13.90;8.00;;;;;;;12.15;64.57;98693.44;106499;1277;138005;-89
2022/05/05 06:07:10;;;;;;;12.30;9.00;;;;;;;12.24;64.67;98690.36;106514;1277;22665;-89
2022/05/05 06:09:36;;;;;;;13.20;8.30;;;;;;;12.33;64.76;98689.39;106292;1277;137932;-88
2022/05/05 06:12:03;;;;;;;16.30;9.50;;;;;;;12.42;64.73;98689.62;106725;1276;25344;-88
2022/05/05 06:14:30;;;;;;;12.70;8.50;;;;;;;12.49;64.50;98690.66;106685;1277;137547;-89
2022/05/05 06:16:56;;;;;;;12.10;8.20;;;;;;;12.58;64.20;98692.77;106559;1277;25322;-89
2022/05/05 06:19:23;;;;;;;13.50;8.80;;;;;;;12.65;63.64;98698.36;106487;1277;23833;-89
2022/05/05 06:21:50;;;;;;;12.30;8.70;;;;;;;12.71;63.73;98693.75;106595;1277;138275;-88
2022/05/05 06:24:16;;;;;;;12.40;9.20;;;;;;;12.82;63.69;98695.30;106356;1277;22669;-89
2022/05/05 06:26:42;;;;;;;12.60;9.40;;;;;;;12.92;63.78;98696.15;106698;1277;138091;-88
2022/05/05 06:29:09;;;;;;;12.90;9.20;;;;;;;13.01;63.25;98699.15;106692;1277;24717;-89
2022/05/05 06:31:35;;;;;;;12.10;9.50;;;;;;;13.11;62.89;98698.67;106635;1277;25371;-88
2022/05/05 06:34:01;;;;;;;14.90;8.70;;;;;;;13.20;62.53;98698.05;106439;1277;137647;-88
2022/05/05 06:36:28;;;;;;;18.30;9.10;;;;;;;13.32;62.75;98698.42;106955;1277;22720;-87
2022/05/05 06:38:54;;;;;;;18.50;9.60;;;;;;;13.47;62.62;98701.55;106627;1276;138432;-87
2022/05/05 06:41:20;;;;;;;18.70;9.60;;;;;;;13.63;62.09;98706.41;106574;1277;22852;-90
2022/05/05 06:43:47;;;;;;;15.10;9.90;;;;;;;13.75;61.58;98707.63;106648;1276;23841;-89
2022/05/05 06:46:13;;;;;;;20.80;10.90;;;;;;;13.86;61.01;98707.98;106452;1277;138726;-89
2022/05/05 06:48:41;;;;;;;23.80;9.30;;;;;;;13.97;60.80;98707.65;106387;1277;22570;-88
2022/05/05 06:51:07;;;;;;;16.20;9.80;;;;;;;14.06;60.51;98708.65;106361;1277;138070;-89
2022/05/05 06:53:33;;;;;;;19.60;9.60;;;;;;;14.14;60.47;98711.17;106279;1277;24302;-87
2022/05/05 06:56:00;;;;;;;16.00;9.70;;;;;;;14.23;60.28;98710.05;106824;1277;25385;-88
2022/05/05 06:58:27;;;;;;;16.30;9.90;;;;;;;14.29;59.76;98714.08;106422;1277;138190;-87
2022/05/05 07:03:33;;;;;;;14.20;9.50;;;;;;;14.41;59.35;98711.11;106727;1277;138289;-88
2022/05/05 07:05:59;;;;;;;15.50;9.70;;;;;;;14.51;59.37;98714.34;106369;1277;22583;-87
2022/05/05 07:08:26;;;;;;;16.60;9.70;;;;;;;14.63;59.42;98715.27;106199;1277;137981;-88
2022/05/05 07:10:52;;;;;;;15.70;9.40;;;;;;;14.74;59.13;98716.09;106811;1277;22573;-88
2022/05/05 07:13:23;;;;;;;15.10;8.60;;;;;;;14.83;58.96;98716.04;106512;1277;22560;-91
2022/05/05 07:15:49;;;;;;;23.60;10.20;;;;;;;14.91;58.74;98715.14;106281;1277;138259;-87
2022/05/05 07:18:16;;;;;;;22.90;10.90;;;;;;;14.95;59.21;98714.55;106364;1277;25346;-89
2022/05/05 07:20:43;;;;;;;14.90;8.90;;;;;;;15.01;58.73;98707.67;106759;1277;138091;-86
2022/05/05 07:23:14;;;;;;;15.20;10.00;;;;;;;15.07;58.26;98708.46;106447;1277;25277;-85
2022/05/05 07:25:42;;;;;;;15.40;9.80;;;;;;;15.11;58.08;98710.41;106289;1277;23245;-87
2022/05/05 07:28:09;;;;;;;14.80;9.20;;;;;;;15.20;58.82;98712.73;106610;1277;138189;-86
2022/05/05 07:30:36;;;;;;;18.90;10.60;;;;;;;15.32;59.06;98719.14;106324;1277;22703;-85
2022/05/05 07:33:03;;;;;;;21.20;10.10;;;;;;;15.45;58.30;98720.83;106438;1277;138473;-87
2022/05/05 07:35:29;;;;;;;13.80;9.00;;;;;;;15.58;57.87;98719.05;106394;1277;22585;-86
2022/05/05 07:37:55;;;;;;;17.90;9.70;;;;;;;15.68;57.48;98716.86;106204;1277;22605;-83
2022/05/05 07:40:21;;;;;;;14.80;10.60;;;;;;;15.76;57.17;98720.70;106235;1276;138105;-83
2022/05/05 07:42:47;;;;;;;13.70;8.30;;;;;;;15.87;56.91;98719.01;106225;1277;22590;-88
2022/05/05 07:45:14;;;;;;;18.90;9.30;;;;;;;15.98;56.89;98718.68;106098;1277;137979;-85
2022/05/05 07:47:40;;;;;;;18.60;9.80;;;;;;;16.09;57.03;98721.99;106358;1277;22707;-86
2022/05/05 07:50:08;;;;;;;12.10;8.70;;;;;;;16.21;56.84;98721.38;106058;1277;24064;-85
2022/05/05 07:52:34;;;;;;;14.40;9.20;;;;;;;16.30;56.50;98716.31;106304;1277;138347;-85
2022/05/05 07:55:15;;;;;;;17.90;8.00;;;;;;;16.44;56.72;98714.16;106391;1277;22550;-86
2022/05/05 07:57:42;;;;;;;12.50;8.20;;;;;;;16.58;56.03;98707.36;105930;1277;137697;-85
2022/05/05 08:00:11;;;;;;;22.10;8.50;;;;;;;16.71;55.87;98707.66;106376;1277;22539;-86
2022/05/05 08:02:37;;;;;;;;;;;;;;;16.86;55.45;98705.77;106720;1276;137899;-84
2022/05/05 08:05:05;;;;;;;15.00;8.30;;;;;;;16.99;55.12;98704.46;106317;1277;23922;-86
2022/05/05 08:07:31;;;;;;;12.60;7.40;;;;;;;17.13;54.39;98705.23;106299;1277;22631;-86
2022/05/05 08:09:57;;;;;;;13.70;7.30;;;;;;;17.26;53.32;98704.73;106620;1277;137729;-85
2022/05/05 08:12:23;;;;;;;8.30;6.30;;;;;;;17.38;52.79;98703.02;106000;1280;22829;-86
2022/05/05 08:14:49;;;;;;;12.40;7.10;;;;;;;17.50;52.20;98702.29;106367;1277;137743;-85
2022/05/05 08:17:16;;;;;;;10.70;6.90;;;;;;;17.61;52.13;98704.71;106295;1277;22698;-84
2022/05/05 08:19:42;;;;;;;6.40;5.10;;;;;;;17.75;51.39;98704.50;106077;1277;24307;-86
2022/05/05 08:22:08;;;;;;;9.30;5.70;;;;;;;17.86;50.92;98701.80;105874;1277;137454;-85
2022/05/05 08:29:57;;;;;;;5.70;4.90;;;;;;;18.30;50.58;98698.19;106203;1277;24265;-86
2022/05/05 08:32:23;;;;;;;8.60;4.90;;;;;;;18.43;50.07;98699.00;105923;1277;137745;-87
2022/05/05 08:34:49;;;;;;;7.80;4.60;;;;;;;18.58;49.76;98703.33;106304;1277;546972;-87
2022/05/05 08:37:16;;;;;;;9.00;3.90;;;;;;;18.73;49.51;98697.81;106510;1277;22563;-85
2022/05/05 08:39:44;;;;;;;9.60;5.50;;;;;;;18.90;49.69;98700.36;106073;1277;137689;-85
2022/05/05 08:42:11;;;;;;;9.10;4.50;;;;;;;19.05;49.53;98697.14;106269;1277;22553;-88
2022/05/05 08:44:37;;;;;;;5.10;3.30;;;;;;;19.20;49.13;98697.95;106485;1277;137716;-86
2022/05/05 08:47:08;;;;;;;5.40;4.20;;;;;;;19.34;47.95;98689.70;106251;1277;24282;-85
2022/05/05 08:49:37;;;;;;;7.50;3.70;;;;;;;19.47;47.74;98694.20;106460;1277;22591;-86
2022/05/05 08:52:07;;;;;;;7.00;3.50;;;;;;;19.59;47.12;98697.02;106036;1278;137577;-86
2022/05/05 08:54:35;;;;;;;5.50;3.20;;;;;;;19.70;46.54;98699.14;106624;1277;22646;-86
2022/05/05 08:57:01;;;;;;;9.00;4.00;;;;;;;19.82;45.96;98697.05;105966;1277;139526;-87
2022/05/05 08:59:27;;;;;;;10.20;4.40;;;;;;;19.93;45.36;98699.25;106188;1276;22551;-86
2022/05/05 09:01:53;;;;;;;5.70;4.10;;;;;;;20.03;45.76;98693.34;106284;1277;22557;-85
2022/05/05 09:04:20;;;;;;;9.00;4.20;;;;;;;20.12;45.51;98695.67;106050;1277;137399;-86
2022/05/05 09:06:52;;;;;;;11.00;5.10;;;;;;;20.23;45.57;98696.97;106822;1277;23362;-85
2022/05/05 09:09:29;;;;;;;11.70;5.60;;;;;;;20.38;45.05;98693.80;105890;1277;137939;-85
2022/05/05 09:12:16;;;;;;;9.00;5.10;;;;;;;20.53;44.18;98694.98;106488;1277;23088;-84
2022/05/05 09:14:57;;;;;;;8.10;5.10;;;;;;;20.68;44.24;98691.46;106216;1277;137743;-83
2022/05/05 09:17:29;;;;;;;10.70;5.20;;;;;;;20.78;44.35;98692.20;106452;1277;25390;-85
2022/05/05 09:19:57;;;;;;;12.10;5.70;;;;;;;20.92;43.65;98685.98;106361;1277;25270;-85
2022/05/05 09:22:25;;;;;;;16.00;5.80;;;;;;;21.05;43.79;98687.18;106493;1277;137657;-85
2022/05/05 09:24:57;;;;;;;12.20;5.70;;;;;;;21.21;43.06;98681.29;106360;1277;22170;-87
2022/05/05 09:27:23;;;;;;;9.60;4.50;;;;;;;21.36;42.91;98688.02;106353;1277;137631;-85
2022/05/05 09:30:04;;;;;;;11.00;5.00;;;;;;;21.51;41.44;98684.10;106225;1276;22584;-86
2022/05/05 09:32:35;;;;;;;6.50;5.00;;;;;;;21.66;41.42;98683.77;106365;1276;138004;-85
2022/05/05 09:35:07;;;;;;;6.00;4.50;;;;;;;21.81;41.84;98685.46;106448;1277;22698;-85
2022/05/05 09:37:34;;;;;;;9.10;4.80;;;;;;;21.90;41.39;98681.91;106615;1277;22552;-85
2022/05/05 09:40:02;;;;;;;8.20;5.60;;;;;;;21.97;41.16;98679.97;106174;1276;137535;-87
2022/05/05 09:42:49;;;;;;;7.60;5.40;;;;;;;22.13;40.57;98678.41;106535;1277;25228;-85
2022/05/05 09:45:18;;;;;;;9.00;5.60;;;;;;;22.26;40.05;98676.38;106392;1277;137433;-84
2022/05/05 09:47:51;;;;;;;11.60;5.60;;;;;;;22.39;40.72;98676.34;107084;1277;22635;-83
2022/05/05 09:50:22;;;;;;;9.80;5.40;;;;;;;22.52;40.16;98676.17;107196;1277;24330;-84
2022/05/05 09:58:14;;;;;;;6.10;4.20;;;;;;;22.89;38.15;98669.36;106226;1277;137632;-85
2022/05/05 10:00:47;;;;;;;5.30;4.00;;;;;;;22.97;38.39;98667.99;106458;1277;24240;-85
2022/05/05 10:06:03;;;;;;;8.10;4.20;;;;;;;23.19;37.18;98669.48;106202;1277;24078;-84
2022/05/05 10:08:48;;;;;;;5.90;4.50;;;;;;;23.24;37.81;98670.54;106468;1277;137730;-85
2022/05/05 10:11:15;;;;;;;7.60;4.40;;;;;;;23.29;36.66;98670.01;106385;1277;26615;-85
2022/05/05 10:13:42;;;;;;;7.50;4.60;;;;;;;23.31;36.87;98665.06;106419;1277;22556;-85
2022/05/05 10:16:09;;;;;;;5.00;3.70;;;;;;;23.42;37.36;98664.65;106156;1278;137721;-84
2022/05/05 10:18:38;;;;;;;7.00;4.60;;;;;;;23.59;36.88;98661.54;106153;1277;25937;-83
2022/05/05 10:21:07;;;;;;;6.60;3.70;;;;;;;23.73;36.42;98662.19;106527;1278;138781;-85
2022/05/05 10:23:56;;;;;;;6.20;3.80;;;;;;;23.87;37.40;98662.27;106476;1276;25433;-84
2022/05/05 10:26:24;;;;;;;6.40;4.20;;;;;;;23.99;38.04;98660.20;106120;1277;22630;-84
2022/05/05 10:28:51;;;;;;;5.00;3.80;;;;;;;24.05;37.00;98659.19;106293;1277;137396;-83
2022/05/05 10:31:31;;;;;;;5.30;3.80;;;;;;;24.04;36.61;98660.03;106193;1277;25321;-82
2022/05/05 10:34:01;;;;;;;6.00;4.30;;;;;;;24.09;36.65;98661.11;106232;1277;137886;-85
2022/05/05 10:36:31;;;;;;;6.00;4.00;;;;;;;24.16;36.25;98656.64;106335;1277;22563;-84
2022/05/05 10:38:58;;;;;;;5.90;4.00;;;;;;;24.21;36.49;98656.52;106248;1277;137628;-84
2022/05/05 10:41:40;;;;;;;4.60;4.00;;;;;;;24.28;36.32;98659.01;106194;1277;22563;-83
2022/05/05 10:44:22;;;;;;;8.70;4.60;;;;;;;24.21;34.83;98661.63;106627;1277;24372;-83
2022/05/05 10:47:00;;;;;;;8.30;3.70;;;;;;;24.06;35.07;98661.37;106341;1277;137407;-83
2022/05/05 10:49:42;;;;;;;5.20;4.10;;;;;;;23.97;35.70;98661.06;106565;1277;24240;-85
2022/05/05 10:52:13;;;;;;;6.00;4.20;;;;;;;23.88;35.91;98662.95;106219;1277;137510;-85
2022/05/05 10:54:47;;;;;;;5.20;3.80;;;;;;;23.84;35.49;98660.41;106301;1277;25419;-83
2022/05/05 10:57:29;;;;;;;4.10;3.70;;;;;;;23.75;34.97;98654.92;106431;1279;138255;-84
2022/05/05 11:00:11;;;;;;;7.00;3.80;;;;;;;23.85;34.91;98655.10;106403;1277;22688;-84
2022/05/05 11:02:41;;;;;;;8.40;3.70;;;;;;;24.06;34.72;98652.08;106344;1277;138006;-84
2022/05/05 11:05:28;;;;;;;5.00;3.90;;;;;;;24.27;35.56;98653.44;106426;1277;22546;-83
2022/05/05 11:08:15;;;;;;;5.30;3.30;;;;;;;24.52;35.03;98653.08;106221;1277;22663;-83
2022/05/05 11:10:41;;;;;;;4.80;3.70;;;;;;;24.72;34.02;98647.85;106353;1277;137641;-83
2022/05/05 11:13:28;;;;;;;4.60;4.00;;;;;;;24.90;34.10;98647.70;106260;1277;22545;-85
2022/05/05 11:21:32;;;;;;;4.90;3.50;;;;;;;25.47;32.24;98638.18;106248;1277;137554;-84
2022/05/05 11:24:01;;;;;;;6.80;3.90;;;;;;;25.43;31.04;98638.81;106457;1277;22577;-83
2022/05/05 11:26:32;;;;;;;6.30;3.70;;;;;;;25.42;31.62;98638.61;106376;1278;25338;-84
2022/05/05 11:28:59;;;;;;;5.70;3.80;;;;;;;25.50;31.67;98635.02;106081;1280;137273;-82
2022/05/05 11:31:30;;;;;;;7.50;4.20;;;;;;;25.62;31.79;98630.63;106339;1277;22574;-82
2022/05/05 11:34:11;;;;;;;6.10;3.90;;;;;;;25.72;31.56;98637.86;105978;1277;137552;-83
2022/05/05 11:36:41;;;;;;;4.80;4.00;;;;;;;25.69;30.84;98632.63;106581;1277;24240;-82
2022/05/05 11:39:22;;;;;;;5.80;3.50;;;;;;;25.52;31.15;98635.33;106188;1277;137732;-83
2022/05/05 11:42:04;;;;;;;5.00;3.20;;;;;;;25.33;30.80;98634.05;105874;1277;30362;-84
2022/05/05 11:44:32;;;;;;;3.90;3.20;;;;;;;24.99;31.71;98629.65;106282;1277;24524;-82
2022/05/05 11:47:28;;;;;;;6.20;3.40;;;;;;;24.82;31.57;98633.45;106238;1276;137931;-83
2022/05/05 11:49:56;;;;;;;3.50;3.20;;;;;;;24.72;31.78;98630.48;106056;1277;22585;-82
2022/05/05 11:52:24;;;;;;;7.60;3.40;;;;;;;24.75;31.85;98629.09;105978;1277;138273;-82
2022/05/05 11:54:54;;;;;;;4.50;3.30;;;;;;;24.71;31.47;98631.41;106567;1277;22709;-84
2022/05/05 11:57:36;;;;;;;;;;;;;;;24.67;31.21;98625.90;106023;1278;137769;-83
2022/05/05 12:02:46;;;;;;;3.90;3.00;;;;;;;25.03;32.05;98620.74;106159;1278;137602;-82
2022/05/05 12:05:13;;;;;;;5.60;3.20;;;;;;;25.26;31.23;98619.77;106564;1277;22636;-82
2022/05/05 12:07:44;;;;;;;6.00;3.70;;;;;;;25.44;31.36;98619.81;106542;1277;22553;-83
2022/05/05 12:10:13;;;;;;;5.80;3.40;;;;;;;25.68;31.41;98617.70;106264;1278;138031;-84
2022/05/05 12:12:44;;;;;;;3.90;3.50;;;;;;;25.95;31.77;98615.97;106846;1277;25358;-83
2022/05/05 12:15:12;;;;;;;5.50;3.80;;;;;;;26.14;31.37;98615.00;106112;1277;138647;-83